This is the latest recevied weather packets stored in our database for station/object NO3U. If no packets are shown the sender has not sent any weather packets the latest 10 day(s).
| Time | Temp. | Humidity | Pressure | Rain* | Wind** | Luminosity | Snow |
|---|---|---|---|---|---|---|---|
| 1777830723 | 13.89° C | 42% | 1016.5 hPa | 0 mm | - | 138 W/m² | - |
| 1777830418 | 14.44° C | 42% | 1016.4 hPa | 0 mm | - | 117 W/m² | - |
| 1777830116 | 13.89° C | 39% | 1016.4 hPa | 0 mm | - | 97 W/m² | - |
| 1777829811 | 13.89° C | 40% | 1016.5 hPa | 0 mm | - | 94 W/m² | - |
| 1777829507 | 13.89° C | 40% | 1016.5 hPa | 0 mm | - | 121 W/m² | - |
| 1777829204 | 13.33° C | 42% | 1016.4 hPa | 0 mm | - | 109 W/m² | - |
| 1777828901 | 13.33° C | 44% | 1016.6 hPa | 0 mm | - | 152 W/m² | - |
| 1777828597 | 12.78° C | 43% | 1016.7 hPa | 0 mm | - | 166 W/m² | - |
| 1777828295 | 12.22° C | 44% | 1016.7 hPa | 0 mm | - | 169 W/m² | - |
| 1777827992 | 12.78° C | 44% | 1016.7 hPa | 0 mm | - | 176 W/m² | - |
| 1777827689 | 13.33° C | 44% | 1016.9 hPa | 0 mm | - | 208 W/m² | - |
| 1777827386 | 12.78° C | 41% | 1017 hPa | 0 mm | - | 234 W/m² | - |
| 1777827082 | 12.22° C | 41% | 1016.9 hPa | 0 mm | - | 164 W/m² | - |
| 1777826779 | 12.78° C | 43% | 1016.8 hPa | 0 mm | - | 259 W/m² | - |
| 1777826476 | 13.33° C | 43% | 1017.1 hPa | 0 mm | - | 335 W/m² | - |
| 1777826173 | 12.78° C | 41% | 1017.3 hPa | 0 mm | - | 722 W/m² | - |
| 1777825870 | 11.67° C | 41% | 1017.2 hPa | 0 mm | - | 694 W/m² | - |
| 1777825567 | 11.67° C | 43% | 1017.5 hPa | 0 mm | - | 339 W/m² | - |
| 1777825265 | 11.67° C | 41% | 1017.2 hPa | 0 mm | - | 226 W/m² | - |
| 1777824961 | 12.22° C | 42% | 1017.3 hPa | 0 mm | - | 226 W/m² | - |
| 1777824657 | 12.78° C | 38% | 1017.5 hPa | 0 mm | - | 853 W/m² | - |
| 1777824355 | 11.67° C | 45% | 1017.4 hPa | 0 mm | - | 291 W/m² | - |
| 1777824050 | 11.67° C | 46% | 1017.5 hPa | 0 mm | - | 231 W/m² | - |
| 1777823747 | 11.67° C | 41% | 1017.6 hPa | 0 mm | - | 797 W/m² | - |
| 1777823444 | 12.22° C | 43% | 1017.6 hPa | 0 mm | - | 212 W/m² | - |
* Rain latest hour (hover to see other rain measurements)
** Current wind speed in m/s (hover to see current wind gust speed)